createdAt,value
2018-09-06T00:00:20.644Z,40.35
2018-09-06T00:01:24.970Z,41.28
2018-09-06T00:02:29.167Z,41.00
2018-09-06T00:03:33.326Z,41.08
2018-09-06T00:04:37.626Z,42.78
2018-09-06T00:05:41.726Z,41.05
2018-09-06T00:06:46.388Z,37.80
2018-09-06T00:07:50.537Z,40.23
2018-09-06T00:08:54.919Z,40.98
2018-09-06T00:09:59.292Z,40.75
2018-09-06T00:11:03.533Z,39.33
2018-09-06T00:12:07.945Z,38.58
2018-09-06T00:13:12.545Z,37.80
2018-09-06T00:14:16.727Z,39.78
2018-09-06T00:15:21.223Z,36.38
2018-09-06T00:16:25.745Z,37.30
2018-09-06T00:17:29.994Z,39.40
2018-09-06T00:18:34.255Z,39.40
2018-09-06T00:19:38.537Z,38.15
2018-09-06T00:20:42.747Z,36.80
2018-09-06T00:21:46.954Z,37.10
2018-09-06T00:22:51.265Z,35.48
2018-09-06T00:23:55.775Z,35.65
2018-09-06T00:25:00.110Z,38.15
2018-09-06T00:26:04.708Z,36.95
2018-09-06T00:27:09.160Z,34.78
2018-09-06T00:28:13.397Z,35.95
2018-09-06T00:29:17.726Z,37.85
2018-09-06T00:30:22.075Z,37.05
2018-09-06T00:31:26.528Z,37.08
2018-09-06T00:32:30.857Z,35.92
2018-09-06T00:33:35.165Z,36.80
2018-09-06T00:34:39.386Z,37.15
2018-09-06T00:35:43.766Z,38.28
2018-09-06T00:36:48.115Z,35.98
2018-09-06T00:37:52.491Z,37.17
2018-09-06T00:38:56.618Z,35.15
2018-09-06T00:40:01.363Z,38.20
2018-09-06T00:41:05.710Z,36.00
2018-09-06T00:42:10.003Z,35.63
2018-09-06T00:43:14.347Z,35.48
2018-09-06T00:44:18.817Z,35.15
2018-09-06T00:45:23.079Z,36.35
2018-09-06T00:46:27.387Z,34.73
2018-09-06T00:47:31.541Z,34.10
2018-09-06T00:48:36.088Z,34.67
2018-09-06T00:49:40.448Z,32.85
2018-09-06T00:50:44.739Z,34.80
2018-09-06T00:51:48.901Z,35.40
2018-09-06T00:52:53.682Z,35.88
2018-09-06T00:53:57.849Z,35.40
2018-09-06T00:55:02.215Z,34.27
2018-09-06T00:56:06.558Z,33.90
2018-09-06T00:57:10.772Z,35.73
2018-09-06T00:58:15.254Z,35.75
2018-09-06T00:59:24.168Z,37.38
2018-09-06T01:00:28.911Z,36.15
2018-09-06T01:01:33.078Z,36.42
2018-09-06T01:02:37.549Z,36.68
2018-09-06T01:03:41.879Z,36.03
2018-09-06T01:04:46.740Z,37.42
2018-09-06T01:05:51.163Z,34.35
2018-09-06T01:06:55.548Z,35.03
2018-09-06T01:08:00.289Z,35.35
2018-09-06T01:09:06.453Z,34.85
2018-09-06T01:10:10.853Z,34.10
2018-09-06T01:11:15.554Z,34.65
2018-09-06T01:12:20.199Z,34.85
2018-09-06T01:13:25.703Z,33.53
2018-09-06T01:14:30.198Z,34.80
2018-09-06T01:15:34.433Z,31.82
2018-09-06T01:16:38.955Z,32.13
2018-09-06T01:17:43.205Z,30.95
2018-09-06T01:18:47.856Z,32.30
2018-09-06T01:19:52.408Z,32.25
2018-09-06T01:20:56.618Z,32.05
2018-09-06T01:22:01.382Z,33.33
2018-09-06T01:23:06.151Z,33.55
2018-09-06T01:24:11.129Z,31.48
2018-09-06T01:25:15.712Z,32.45
2018-09-06T01:26:19.919Z,32.85
2018-09-06T01:27:24.354Z,32.25
2018-09-06T01:28:28.465Z,31.25
2018-09-06T01:29:33.067Z,34.40
2018-09-06T01:30:38.045Z,32.28
2018-09-06T01:31:42.742Z,31.12
2018-09-06T01:32:46.840Z,31.62
2018-09-06T01:33:51.508Z,31.73
2018-09-06T01:34:55.643Z,31.30
2018-09-06T01:36:05.454Z,30.77
2018-09-06T01:37:10.624Z,31.20
2018-09-06T01:38:14.743Z,30.90
2018-09-06T01:39:19.207Z,29.80
2018-09-06T01:40:23.627Z,31.15
2018-09-06T01:41:28.178Z,30.40
2018-09-06T01:42:32.467Z,31.73
2018-09-06T01:43:37.184Z,32.83
2018-09-06T01:44:42.113Z,30.80
2018-09-06T01:45:46.448Z,30.43
2018-09-06T01:46:50.723Z,30.85
2018-09-06T01:47:55.098Z,32.33
2018-09-06T01:48:59.262Z,30.82
2018-09-06T01:50:03.578Z,29.70
2018-09-06T01:51:08.002Z,30.05
2018-09-06T01:52:12.511Z,29.35
2018-09-06T01:53:17.060Z,29.67
2018-09-06T01:54:21.566Z,30.27
2018-09-06T01:55:25.782Z,30.75
2018-09-06T01:56:30.423Z,29.45
2018-09-06T01:57:34.855Z,30.43
2018-09-06T01:58:39.110Z,29.07
2018-09-06T01:59:43.458Z,31.00
2018-09-06T02:00:47.910Z,29.63
2018-09-06T02:01:52.279Z,28.75
2018-09-06T02:02:56.539Z,28.90
2018-09-06T02:04:00.787Z,29.80
2018-09-06T02:05:05.278Z,28.15
2018-09-06T02:06:09.880Z,28.27
2018-09-06T02:07:14.363Z,29.75
2018-09-06T02:08:18.718Z,26.73
2018-09-06T02:09:23.085Z,27.90
2018-09-06T02:10:27.306Z,30.00
2018-09-06T02:11:31.768Z,29.20
2018-09-06T02:12:36.228Z,28.30
2018-09-06T02:13:40.441Z,28.55
2018-09-06T02:14:44.853Z,28.90
2018-09-06T02:15:49.481Z,30.55
2018-09-06T02:16:53.611Z,29.02
2018-09-06T02:17:57.934Z,28.32
2018-09-06T02:19:02.579Z,27.35
2018-09-06T02:20:06.895Z,29.00
2018-09-06T02:21:11.371Z,28.10
2018-09-06T02:22:15.507Z,29.18
2018-09-06T02:23:19.682Z,28.73
2018-09-06T02:24:23.980Z,29.63
2018-09-06T02:25:28.259Z,28.40
2018-09-06T02:26:32.587Z,28.10
2018-09-06T02:27:37.142Z,29.23
2018-09-06T02:28:41.485Z,27.17
2018-09-06T02:29:45.858Z,25.45
2018-09-06T02:30:50.119Z,28.40
2018-09-06T02:31:54.560Z,27.10
2018-09-06T02:32:58.875Z,28.73
2018-09-06T02:34:03.068Z,28.98
2018-09-06T02:35:07.332Z,28.25
2018-09-06T02:36:11.446Z,27.52
2018-09-06T02:37:15.851Z,28.25
2018-09-06T02:38:20.098Z,27.22
2018-09-06T02:39:24.643Z,28.98
2018-09-06T02:40:34.430Z,30.05
2018-09-06T02:41:39.102Z,26.97
2018-09-06T02:42:43.320Z,26.68
2018-09-06T02:43:47.694Z,26.33
2018-09-06T02:44:52.027Z,28.07
2018-09-06T02:45:56.241Z,27.13
2018-09-06T02:47:00.814Z,28.65
2018-09-06T02:48:04.899Z,26.50
2018-09-06T02:49:09.168Z,25.90
2018-09-06T02:50:18.890Z,26.62
2018-09-06T02:51:23.286Z,26.60
2018-09-06T02:52:27.670Z,27.30
2018-09-06T02:53:32.923Z,27.17
2018-09-06T02:54:37.219Z,26.77
2018-09-06T02:55:41.730Z,27.45
2018-09-06T02:56:46.179Z,25.70
2018-09-06T02:57:50.552Z,24.47
2018-09-06T02:58:54.819Z,26.50
2018-09-06T02:59:59.045Z,26.60
2018-09-06T03:01:08.558Z,25.23
2018-09-06T03:02:13.181Z,26.00
2018-09-06T03:03:17.322Z,24.77
2018-09-06T03:04:21.754Z,27.45
2018-09-06T03:05:26.757Z,26.42
2018-09-06T03:06:31.084Z,27.10
2018-09-06T03:07:35.277Z,25.45
2018-09-06T03:08:39.597Z,27.05
2018-09-06T03:09:44.012Z,27.73
2018-09-06T03:10:50.514Z,26.65
2018-09-06T03:12:00.386Z,25.85
2018-09-06T03:13:04.768Z,25.88
2018-09-06T03:14:09.740Z,27.65
2018-09-06T03:15:14.023Z,24.63
2018-09-06T03:16:18.533Z,26.07
2018-09-06T03:17:22.629Z,25.17
2018-09-06T03:18:27.218Z,25.32
2018-09-06T03:19:31.770Z,28.65
2018-09-06T03:20:36.173Z,27.00
2018-09-06T03:21:40.458Z,26.35
2018-09-06T03:22:44.809Z,25.52
2018-09-06T03:23:49.319Z,24.67
2018-09-06T03:24:53.592Z,25.90
2018-09-06T03:25:57.800Z,24.10
2018-09-06T03:27:01.846Z,24.18
2018-09-06T03:28:06.037Z,27.10
2018-09-06T03:29:10.195Z,26.10
2018-09-06T03:30:14.359Z,24.20
2018-09-06T03:31:18.523Z,26.75
2018-09-06T03:32:22.736Z,25.50
2018-09-06T03:33:27.018Z,23.45
2018-09-06T03:34:31.249Z,25.17
2018-09-06T03:35:35.383Z,24.20
2018-09-06T03:36:39.528Z,24.43
2018-09-06T03:37:43.620Z,27.90
2018-09-06T03:38:47.778Z,25.60
2018-09-06T03:39:52.101Z,25.45
2018-09-06T03:40:56.700Z,24.75
2018-09-06T03:42:00.948Z,24.67
2018-09-06T03:43:05.245Z,25.35
2018-09-06T03:44:09.549Z,22.70
2018-09-06T03:45:13.672Z,25.25
2018-09-06T03:46:17.944Z,25.32
2018-09-06T03:47:22.064Z,24.05
2018-09-06T03:48:26.670Z,24.67
2018-09-06T03:49:31.170Z,24.50
2018-09-06T03:50:35.445Z,24.70
2018-09-06T03:51:39.691Z,23.47
2018-09-06T03:52:43.858Z,23.60
2018-09-06T03:53:48.345Z,24.20
2018-09-06T03:54:52.628Z,24.92
2018-09-06T03:55:56.778Z,24.10
2018-09-06T03:57:01.061Z,25.23
2018-09-06T03:58:05.453Z,23.25
2018-09-06T03:59:09.659Z,25.52
2018-09-06T04:00:13.923Z,22.77
2018-09-06T04:01:18.862Z,23.65
2018-09-06T04:02:23.178Z,21.97
2018-09-06T04:03:27.447Z,22.70
2018-09-06T04:04:31.758Z,21.93
2018-09-06T04:05:36.171Z,23.83
2018-09-06T04:06:47.147Z,21.80
2018-09-06T04:07:52.143Z,22.30
2018-09-06T04:08:56.788Z,21.95
2018-09-06T04:10:00.981Z,21.90
2018-09-06T04:11:05.534Z,24.25
2018-09-06T04:12:09.822Z,23.00
2018-09-06T04:13:14.205Z,22.30
2018-09-06T04:14:18.609Z,22.75
2018-09-06T04:15:22.880Z,23.55
2018-09-06T04:16:27.558Z,22.67
2018-09-06T04:17:32.043Z,22.82
2018-09-06T04:18:36.249Z,23.60
2018-09-06T04:19:40.637Z,22.77
2018-09-06T04:20:47.153Z,22.07
2018-09-06T04:21:51.678Z,22.40
2018-09-06T04:22:55.964Z,24.98
2018-09-06T04:24:00.482Z,22.98
2018-09-06T04:25:04.757Z,21.60
2018-09-06T04:26:09.061Z,23.00
2018-09-06T04:27:13.401Z,23.65
2018-09-06T04:28:17.904Z,22.90
2018-09-06T04:29:22.522Z,22.60
2018-09-06T04:30:26.703Z,22.32
2018-09-06T04:31:31.209Z,23.20
2018-09-06T04:32:35.475Z,21.70
2018-09-06T04:33:39.592Z,22.90
2018-09-06T04:34:43.826Z,23.57
2018-09-06T04:35:47.877Z,22.67
2018-09-06T04:36:52.404Z,21.75
2018-09-06T04:37:57.029Z,22.75
2018-09-06T04:39:01.405Z,22.13
2018-09-06T04:40:05.580Z,23.85
2018-09-06T04:41:09.890Z,21.97
2018-09-06T04:42:14.287Z,21.95
2018-09-06T04:43:18.641Z,24.55
2018-09-06T04:45:04.183Z,22.25
2018-09-06T04:46:08.539Z,23.57
2018-09-06T04:47:13.884Z,24.10
2018-09-06T04:48:18.170Z,21.73
2018-09-06T04:49:22.546Z,23.38
2018-09-06T04:50:26.942Z,22.30
2018-09-06T04:51:31.353Z,21.48
2018-09-06T04:52:35.479Z,21.37
2018-09-06T04:53:39.722Z,22.90
2018-09-06T04:54:43.918Z,21.85
2018-09-06T04:55:48.259Z,22.75
2018-09-06T04:56:52.435Z,22.13
2018-09-06T04:57:56.613Z,23.10
2018-09-06T04:59:00.791Z,22.42
2018-09-06T05:00:04.910Z,23.42
2018-09-06T05:01:09.062Z,21.90
2018-09-06T05:02:13.605Z,22.22
2018-09-06T05:03:18.182Z,23.00
2018-09-06T05:04:22.608Z,22.40
2018-09-06T05:05:27.114Z,22.77
2018-09-06T05:06:31.528Z,21.65
2018-09-06T05:07:35.934Z,22.98
2018-09-06T05:08:40.429Z,21.10
2018-09-06T05:09:44.683Z,22.05
2018-09-06T05:10:48.887Z,21.95
2018-09-06T05:11:53.153Z,20.37
2018-09-06T05:12:57.480Z,21.62
2018-09-06T05:14:01.837Z,23.38
2018-09-06T05:15:06.124Z,22.30
2018-09-06T05:16:10.578Z,21.87
2018-09-06T05:17:14.685Z,22.60
2018-09-06T05:18:19.107Z,23.18
2018-09-06T05:19:23.428Z,20.17
2018-09-06T05:20:27.749Z,21.12
2018-09-06T05:21:31.942Z,21.97
2018-09-06T05:22:36.186Z,21.25
2018-09-06T05:23:40.549Z,22.37
2018-09-06T05:24:44.951Z,22.48
2018-09-06T05:25:49.417Z,21.35
2018-09-06T05:26:53.902Z,20.95
2018-09-06T05:27:58.558Z,22.70
2018-09-06T05:29:02.943Z,21.57
2018-09-06T05:30:07.137Z,21.60
2018-09-06T05:31:11.336Z,21.85
2018-09-06T05:32:15.722Z,19.30
2018-09-06T05:33:20.451Z,20.43
2018-09-06T05:34:24.849Z,22.48
2018-09-06T05:35:29.633Z,20.82
2018-09-06T05:36:34.193Z,19.60
2018-09-06T05:37:38.651Z,20.88
2018-09-06T05:38:42.921Z,20.75
2018-09-06T05:39:47.306Z,22.65
2018-09-06T05:40:51.811Z,20.77
2018-09-06T05:41:56.277Z,20.68
2018-09-06T05:43:00.820Z,20.52
2018-09-06T05:44:05.262Z,20.50
2018-09-06T05:45:09.618Z,21.20
2018-09-06T05:46:13.916Z,20.72
2018-09-06T05:47:18.324Z,19.20
2018-09-06T05:48:22.545Z,21.20
2018-09-06T05:49:27.525Z,21.37
2018-09-06T05:50:32.254Z,21.95
2018-09-06T05:51:37.185Z,20.37
2018-09-06T05:52:41.418Z,21.07
2018-09-06T05:53:45.605Z,21.17
2018-09-06T05:54:49.947Z,19.67
2018-09-06T05:55:54.065Z,20.77
2018-09-06T05:56:58.572Z,21.27
2018-09-06T05:58:02.931Z,21.00
2018-09-06T05:59:07.158Z,20.60
2018-09-06T06:00:16.647Z,20.82
2018-09-06T06:01:20.916Z,22.37
2018-09-06T06:02:25.565Z,21.57
2018-09-06T06:03:29.856Z,20.50
2018-09-06T06:04:34.281Z,19.90
2018-09-06T06:05:38.518Z,21.33
2018-09-06T06:06:42.791Z,22.25
2018-09-06T06:07:58.639Z,20.97
2018-09-06T06:09:02.911Z,22.02
2018-09-06T06:10:07.395Z,20.65
2018-09-06T06:11:11.694Z,20.88
2018-09-06T06:12:15.952Z,23.57
2018-09-06T06:13:20.795Z,22.80
2018-09-06T06:14:25.191Z,21.55
2018-09-06T06:15:29.707Z,24.27
2018-09-06T06:16:34.494Z,21.85
2018-09-06T06:17:38.908Z,21.30
2018-09-06T06:18:43.724Z,22.98
2018-09-06T06:19:47.939Z,22.62
2018-09-06T06:20:52.219Z,22.67
2018-09-06T06:21:56.483Z,23.40
2018-09-06T06:23:00.841Z,21.82
2018-09-06T06:24:05.140Z,24.10
2018-09-06T06:25:09.516Z,22.75
2018-09-06T06:26:13.702Z,22.58
2018-09-06T06:27:18.035Z,20.05
2018-09-06T06:28:22.234Z,20.55
2018-09-06T06:29:26.432Z,21.68
2018-09-06T06:30:30.670Z,22.00
2018-09-06T06:31:35.093Z,21.45
2018-09-06T06:32:39.415Z,21.62
2018-09-06T06:33:43.652Z,21.12
2018-09-06T06:34:48.353Z,20.40
2018-09-06T06:35:52.552Z,22.10
2018-09-06T06:36:56.983Z,21.10
2018-09-06T06:38:01.393Z,22.13
2018-09-06T06:39:08.712Z,21.30
2018-09-06T06:40:12.877Z,20.85
2018-09-06T06:41:17.266Z,21.90
2018-09-06T06:42:21.530Z,21.97
2018-09-06T06:43:25.889Z,21.90
2018-09-06T06:44:30.217Z,20.40
2018-09-06T06:45:34.481Z,22.05
2018-09-06T06:46:39.261Z,20.37
2018-09-06T06:47:43.844Z,19.25
2018-09-06T06:48:48.257Z,19.52
2018-09-06T06:49:52.525Z,17.80
2018-09-06T06:50:56.685Z,19.55
2018-09-06T06:52:01.231Z,19.73
2018-09-06T06:53:05.293Z,19.50
2018-09-06T06:54:09.578Z,19.42
2018-09-06T06:55:13.703Z,18.77
2018-09-06T06:56:18.326Z,17.60
2018-09-06T06:57:22.892Z,19.48
2018-09-06T06:58:27.448Z,18.85
2018-09-06T06:59:31.596Z,18.37
2018-09-06T07:00:40.377Z,20.23
2018-09-06T07:01:44.581Z,18.02
2018-09-06T07:02:49.290Z,18.50
2018-09-06T07:03:53.493Z,19.15
2018-09-06T07:04:57.806Z,18.57
2018-09-06T07:06:02.365Z,17.82
2018-09-06T07:07:07.329Z,18.25
2018-09-06T07:08:12.207Z,18.37
2018-09-06T07:09:16.441Z,18.62
2018-09-06T07:10:20.980Z,20.92
2018-09-06T07:11:25.093Z,19.30
2018-09-06T07:12:29.284Z,19.98
2018-09-06T07:13:33.495Z,21.25
2018-09-06T07:14:37.801Z,20.97
2018-09-06T07:15:41.988Z,21.10
2018-09-06T07:16:46.266Z,20.62
2018-09-06T07:17:50.385Z,20.50
2018-09-06T07:18:54.704Z,19.17
2018-09-06T07:19:58.875Z,18.77
2018-09-06T07:21:03.189Z,20.30
2018-09-06T07:22:07.554Z,21.20
2018-09-06T07:23:11.866Z,20.05
2018-09-06T07:24:16.041Z,21.15
2018-09-06T07:25:20.533Z,22.02
2018-09-06T07:26:24.755Z,19.87
2018-09-06T07:27:29.217Z,20.45
2018-09-06T07:28:33.336Z,21.87
2018-09-06T07:29:37.653Z,21.30
2018-09-06T07:30:41.971Z,22.90
2018-09-06T07:31:46.265Z,22.45
2018-09-06T07:32:50.570Z,23.47
2018-09-06T07:33:54.854Z,24.37
2018-09-06T07:34:59.132Z,22.40
2018-09-06T07:36:03.428Z,24.02
2018-09-06T07:37:07.599Z,25.52
2018-09-06T07:38:11.785Z,23.12
2018-09-06T07:39:15.962Z,24.98
2018-09-06T07:40:20.094Z,23.57
2018-09-06T07:41:24.481Z,24.70
2018-09-06T07:42:28.613Z,25.40
2018-09-06T07:43:32.752Z,23.20
2018-09-06T07:44:36.982Z,24.25
2018-09-06T07:45:41.198Z,24.05
2018-09-06T07:46:45.387Z,23.00
2018-09-06T07:47:49.596Z,25.05
2018-09-06T07:48:53.963Z,26.12
2018-09-06T07:49:58.422Z,25.95
2018-09-06T07:51:02.918Z,25.37
2018-09-06T07:52:07.240Z,23.57
2018-09-06T07:53:11.653Z,23.10
2018-09-06T07:54:16.047Z,23.10
2018-09-06T07:55:20.218Z,22.42
2018-09-06T07:56:24.471Z,23.92
2018-09-06T07:57:28.949Z,24.70
2018-09-06T07:58:33.266Z,21.93
2018-09-06T07:59:37.663Z,23.12
2018-09-06T08:00:41.949Z,22.82
2018-09-06T08:01:46.896Z,21.93
2018-09-06T08:02:51.228Z,22.70
2018-09-06T08:03:55.334Z,22.35
2018-09-06T08:04:59.531Z,23.10
2018-09-06T08:06:04.073Z,23.12
2018-09-06T08:07:08.204Z,21.40
2018-09-06T08:08:12.662Z,23.85
2018-09-06T08:09:16.957Z,21.60
2018-09-06T08:10:21.364Z,22.22
2018-09-06T08:11:25.863Z,23.62
2018-09-06T08:12:30.121Z,22.82
2018-09-06T08:13:34.464Z,21.25
2018-09-06T08:14:38.621Z,21.15
2018-09-06T08:15:43.079Z,21.23
2018-09-06T08:16:47.333Z,22.35
2018-09-06T08:17:51.641Z,21.20
2018-09-06T08:18:56.160Z,22.17
2018-09-06T08:20:00.368Z,20.80
2018-09-06T08:21:04.770Z,22.60
2018-09-06T08:22:08.896Z,24.50
2018-09-06T08:23:13.001Z,21.20
2018-09-06T08:24:17.349Z,22.50
2018-09-06T08:25:21.836Z,22.58
2018-09-06T08:26:26.535Z,21.93
2018-09-06T08:27:30.869Z,19.48
2018-09-06T08:28:35.205Z,19.98
2018-09-06T08:29:39.396Z,18.35
2018-09-06T08:30:44.475Z,20.35
2018-09-06T08:31:48.916Z,18.60
2018-09-06T08:32:53.386Z,18.35
2018-09-06T08:33:57.683Z,18.30
2018-09-06T08:35:02.182Z,18.85
2018-09-06T08:36:06.548Z,19.23
2018-09-06T08:37:10.686Z,18.92
2018-09-06T08:38:15.229Z,18.77
2018-09-06T08:39:19.497Z,19.32
2018-09-06T08:40:23.777Z,19.02
2018-09-06T08:41:28.205Z,17.57
2018-09-06T08:42:32.786Z,19.65
2018-09-06T08:43:36.909Z,18.50
2018-09-06T08:44:41.262Z,18.48
2018-09-06T08:45:45.477Z,18.40
2018-09-06T08:46:49.980Z,18.92
2018-09-06T08:47:54.182Z,19.15
2018-09-06T08:48:58.605Z,19.52
2018-09-06T08:50:03.316Z,18.77
2018-09-06T08:51:08.393Z,18.27
2018-09-06T08:52:12.944Z,18.02
2018-09-06T08:53:17.380Z,18.25
2018-09-06T08:54:21.745Z,17.32
2018-09-06T08:55:26.279Z,20.17
2018-09-06T08:56:30.569Z,16.85
2018-09-06T08:57:34.955Z,17.73
2018-09-06T08:58:39.399Z,18.40
2018-09-06T08:59:43.433Z,18.17
2018-09-06T09:00:53.011Z,18.10
2018-09-06T09:01:57.405Z,18.45
2018-09-06T09:03:01.644Z,17.73
2018-09-06T09:04:06.454Z,18.55
2018-09-06T09:05:10.663Z,18.45
2018-09-06T09:06:14.795Z,18.70
2018-09-06T09:07:18.951Z,18.62
2018-09-06T09:08:23.635Z,17.15
2018-09-06T09:09:27.933Z,18.15
2018-09-06T09:10:32.128Z,18.27
2018-09-06T09:11:36.318Z,16.87
2018-09-06T09:12:40.473Z,17.92
2018-09-06T09:13:44.785Z,17.17
2018-09-06T09:14:49.102Z,17.05
2018-09-06T09:15:53.430Z,17.07
2018-09-06T09:16:57.618Z,18.48
2018-09-06T09:18:01.825Z,17.27
2018-09-06T09:19:06.632Z,16.90
2018-09-06T09:20:11.156Z,16.48
2018-09-06T09:21:15.345Z,18.57
2018-09-06T09:22:19.737Z,16.23
2018-09-06T09:23:23.829Z,17.05
2018-09-06T09:24:28.229Z,16.90
2018-09-06T09:25:32.504Z,16.73
2018-09-06T09:26:36.892Z,16.67
2018-09-06T09:27:41.290Z,18.05
2018-09-06T09:28:45.557Z,17.00
2018-09-06T09:29:49.681Z,17.45
2018-09-06T09:30:54.173Z,16.48
2018-09-06T09:31:58.503Z,16.77
2018-09-06T09:33:02.840Z,16.80
2018-09-06T09:34:07.405Z,17.15
2018-09-06T09:35:11.620Z,17.40
2018-09-06T09:36:16.013Z,16.15
2018-09-06T09:37:20.359Z,16.67
2018-09-06T09:38:24.642Z,16.02
2018-09-06T09:39:29.046Z,15.68
2018-09-06T09:40:33.439Z,17.60
2018-09-06T09:41:37.713Z,16.35
2018-09-06T09:42:42.011Z,17.17
2018-09-06T09:43:46.311Z,17.35
2018-09-06T09:44:50.698Z,16.93
2018-09-06T09:48:02.563Z,17.42
2018-09-06T09:49:06.798Z,17.05
2018-09-06T09:51:15.437Z,17.52
2018-09-06T09:53:23.857Z,15.35
2018-09-06T09:54:28.170Z,17.10
2018-09-06T09:55:32.920Z,17.73
2018-09-06T09:56:37.206Z,17.77
2018-09-06T09:57:43.711Z,16.95
2018-09-06T09:58:48.240Z,17.27
2018-09-06T09:59:52.452Z,16.80
2018-09-06T10:00:56.890Z,16.90
2018-09-06T10:02:06.793Z,16.25
2018-09-06T10:03:16.439Z,17.48
2018-09-06T10:04:26.806Z,15.40
2018-09-06T10:05:36.571Z,16.10
2018-09-06T10:06:46.173Z,16.02
2018-09-06T10:07:55.905Z,16.25
2018-09-06T10:09:05.532Z,16.23
2018-09-06T10:10:09.715Z,16.50
2018-09-06T10:11:14.610Z,16.20
2018-09-06T10:12:19.234Z,17.20
2018-09-06T10:13:23.478Z,17.42
2018-09-06T10:14:27.790Z,16.87
2018-09-06T10:15:32.127Z,16.70
2018-09-06T10:16:36.307Z,16.10
2018-09-06T10:17:40.426Z,16.37
2018-09-06T10:18:44.976Z,16.25
2018-09-06T10:19:49.286Z,17.25
2018-09-06T10:20:53.606Z,16.30
2018-09-06T10:21:57.892Z,15.93
2018-09-06T10:23:02.239Z,15.68
2018-09-06T10:24:06.662Z,15.50
2018-09-06T10:25:11.109Z,16.87
2018-09-06T10:26:15.449Z,16.70
2018-09-06T10:27:19.653Z,18.32
2018-09-06T10:28:23.899Z,16.25
2018-09-06T10:29:28.103Z,16.23
2018-09-06T10:30:32.546Z,17.07
2018-09-06T10:31:37.101Z,15.58
2018-09-06T10:32:41.441Z,16.80
2018-09-06T10:33:45.697Z,16.50
2018-09-06T10:34:49.813Z,17.80
2018-09-06T10:35:53.982Z,17.40
2018-09-06T10:36:58.162Z,17.00
2018-09-06T10:38:02.703Z,15.88
2018-09-06T10:39:08.719Z,18.15
2018-09-06T10:40:12.861Z,16.50
2018-09-06T10:41:17.290Z,16.70
2018-09-06T10:42:21.502Z,15.00
2018-09-06T10:43:25.734Z,15.60
2018-09-06T10:44:30.086Z,16.60
2018-09-06T10:45:34.521Z,15.93
2018-09-06T10:46:38.669Z,16.45
2018-09-06T10:47:42.938Z,15.75
2018-09-06T10:48:47.370Z,15.90
2018-09-06T10:49:51.540Z,15.75
2018-09-06T10:50:55.729Z,16.73
2018-09-06T10:52:00.303Z,15.03
2018-09-06T10:53:04.552Z,15.78
2018-09-06T10:54:08.962Z,16.57
2018-09-06T10:55:13.679Z,14.23
2018-09-06T10:56:18.045Z,15.50
2018-09-06T10:57:22.373Z,15.48
2018-09-06T10:58:27.057Z,16.40
2018-09-06T10:59:31.191Z,16.02
2018-09-06T11:00:35.805Z,16.02
2018-09-06T11:01:40.142Z,15.35
2018-09-06T11:02:44.487Z,17.12
2018-09-06T11:03:49.593Z,15.78
2018-09-06T11:04:53.981Z,14.70
2018-09-06T11:05:58.537Z,15.60
2018-09-06T11:07:02.964Z,14.03
2018-09-06T11:08:07.599Z,15.80
2018-09-06T11:09:11.733Z,16.10
2018-09-06T11:10:16.109Z,15.65
2018-09-06T11:11:20.532Z,14.50
2018-09-06T11:12:24.996Z,15.08
2018-09-06T11:13:29.696Z,15.35
2018-09-06T11:14:33.870Z,15.20
2018-09-06T11:15:38.207Z,15.80
2018-09-06T11:16:42.398Z,14.70
2018-09-06T11:17:46.690Z,16.15
2018-09-06T11:18:50.811Z,15.80
2018-09-06T11:19:55.345Z,14.95
2018-09-06T11:20:59.417Z,15.10
2018-09-06T11:22:04.048Z,13.60
2018-09-06T11:23:08.109Z,15.38
2018-09-06T11:24:12.458Z,15.48
2018-09-06T11:25:16.635Z,14.50
2018-09-06T11:26:20.796Z,15.45
2018-09-06T11:27:25.199Z,14.85
2018-09-06T11:28:29.404Z,13.70
2018-09-06T11:29:34.232Z,15.58
2018-09-06T11:30:38.821Z,15.32
2018-09-06T11:31:42.997Z,13.85
2018-09-06T11:32:47.207Z,15.25
2018-09-06T11:33:51.309Z,14.90
2018-09-06T11:34:55.500Z,15.32
2018-09-06T11:35:59.773Z,14.28
2018-09-06T11:37:04.215Z,13.60
2018-09-06T11:38:08.381Z,14.80
2018-09-06T11:39:12.914Z,13.45
2018-09-06T11:40:17.390Z,14.23
2018-09-06T11:41:21.890Z,13.62
2018-09-06T11:42:26.091Z,13.55
2018-09-06T11:43:30.411Z,14.38
2018-09-06T11:44:34.794Z,13.98
2018-09-06T11:45:39.084Z,14.55
2018-09-06T11:46:43.383Z,14.03
2018-09-06T11:47:47.815Z,13.65
2018-09-06T11:48:52.206Z,14.78
2018-09-06T11:49:56.780Z,12.58
2018-09-06T11:51:01.179Z,12.55
2018-09-06T11:52:05.858Z,13.72
2018-09-06T11:53:10.170Z,12.95
2018-09-06T11:54:14.660Z,13.25
2018-09-06T11:55:19.077Z,12.75
2018-09-06T11:56:23.365Z,13.00
2018-09-06T11:57:27.654Z,14.18
2018-09-06T11:58:32.214Z,13.43
2018-09-06T11:59:36.535Z,14.55
2018-09-06T12:00:42.366Z,15.05
2018-09-06T12:01:46.897Z,15.03
2018-09-06T12:02:51.429Z,14.30
2018-09-06T12:03:55.868Z,14.40
2018-09-06T12:05:00.097Z,13.93
2018-09-06T12:06:04.448Z,14.15
2018-09-06T12:07:08.777Z,13.03
2018-09-06T12:08:13.291Z,13.32
2018-09-06T12:09:17.894Z,14.53
2018-09-06T12:10:22.450Z,14.10
2018-09-06T12:11:26.654Z,13.00
2018-09-06T12:12:31.155Z,12.53
2018-09-06T12:13:35.412Z,13.53
2018-09-06T12:14:39.859Z,14.50
2018-09-06T12:15:44.364Z,13.18
2018-09-06T12:16:48.469Z,12.60
2018-09-06T12:17:52.633Z,12.05
2018-09-06T12:18:56.871Z,13.03
2018-09-06T12:20:01.603Z,13.13
2018-09-06T12:21:05.898Z,13.35
2018-09-06T12:22:10.246Z,14.05
2018-09-06T12:23:14.539Z,14.18
2018-09-06T12:24:18.713Z,13.50
2018-09-06T12:25:23.315Z,13.00
2018-09-06T12:26:27.396Z,12.50
2018-09-06T12:27:31.686Z,12.43
2018-09-06T12:28:35.952Z,13.60
2018-09-06T12:29:40.131Z,13.80
2018-09-06T12:30:44.443Z,13.70
2018-09-06T12:31:48.722Z,13.00
2018-09-06T12:32:53.008Z,13.40
2018-09-06T12:33:57.314Z,14.10
2018-09-06T12:35:03.955Z,12.03
2018-09-06T12:36:08.205Z,13.25
2018-09-06T12:37:13.773Z,13.70
2018-09-06T12:38:18.256Z,12.18
2018-09-06T12:39:22.437Z,13.70
2018-09-06T12:40:26.815Z,12.90
2018-09-06T12:41:30.977Z,14.28
2018-09-06T12:42:35.330Z,12.43
2018-09-06T12:43:39.476Z,13.00
2018-09-06T12:44:43.936Z,12.65
2018-09-06T12:45:48.189Z,12.53
2018-09-06T12:46:52.678Z,12.82
2018-09-06T12:47:57.089Z,12.25
2018-09-06T12:49:01.506Z,12.18
2018-09-06T12:50:05.756Z,12.35
2018-09-06T12:51:10.410Z,13.35
2018-09-06T12:52:14.852Z,12.28
2018-09-06T12:53:19.354Z,13.03
2018-09-06T12:54:23.631Z,11.40
2018-09-06T12:55:27.919Z,11.80
2018-09-06T12:56:32.142Z,12.35
2018-09-06T12:57:36.350Z,12.58
2018-09-06T12:58:40.492Z,11.68
2018-09-06T12:59:44.925Z,12.73
2018-09-06T13:00:49.204Z,12.65
2018-09-06T13:01:53.460Z,12.23
2018-09-06T13:02:57.820Z,11.63
2018-09-06T13:04:02.053Z,11.90
2018-09-06T13:05:06.808Z,11.03
2018-09-06T13:06:10.851Z,11.90
2018-09-06T13:07:15.177Z,13.00
2018-09-06T13:08:19.661Z,12.60
2018-09-06T13:09:24.171Z,11.40
2018-09-06T13:10:28.637Z,11.75
2018-09-06T13:11:32.733Z,12.43
2018-09-06T13:12:37.029Z,13.20
2018-09-06T13:13:41.168Z,12.33
2018-09-06T13:14:45.392Z,12.78
2018-09-06T13:15:49.700Z,11.80
2018-09-06T13:16:53.830Z,11.18
2018-09-06T13:17:57.963Z,11.68
2018-09-06T13:19:02.406Z,11.78
2018-09-06T13:20:07.132Z,11.93
2018-09-06T13:21:11.396Z,12.88
2018-09-06T13:22:15.596Z,13.35
2018-09-06T13:23:20.301Z,12.45
2018-09-06T13:24:24.608Z,12.93
2018-09-06T13:25:28.910Z,13.68
2018-09-06T13:26:33.179Z,11.73
2018-09-06T13:27:37.706Z,12.40
2018-09-06T13:28:42.114Z,12.10
2018-09-06T13:29:46.551Z,11.50
2018-09-06T13:30:51.113Z,12.23
2018-09-06T13:31:55.290Z,11.83
2018-09-06T13:32:59.539Z,12.10
2018-09-06T13:34:03.767Z,12.93
2018-09-06T13:35:08.313Z,12.10
2018-09-06T13:36:12.781Z,15.15
2018-09-06T13:37:17.080Z,13.60
2018-09-06T13:38:21.501Z,12.25
2018-09-06T13:39:25.932Z,11.65
2018-09-06T13:40:30.087Z,12.05
2018-09-06T13:41:34.472Z,11.45
2018-09-06T13:42:38.776Z,11.90
2018-09-06T13:43:42.949Z,11.63
2018-09-06T13:44:47.121Z,11.70
2018-09-06T13:45:51.704Z,13.18
2018-09-06T13:46:56.136Z,11.35
2018-09-06T13:48:00.282Z,11.80
2018-09-06T13:49:04.693Z,12.98
2018-09-06T13:50:08.951Z,12.98
2018-09-06T13:51:13.305Z,13.65
2018-09-06T13:52:17.629Z,12.05
2018-09-06T13:53:21.872Z,11.45
2018-09-06T13:54:26.392Z,12.58
2018-09-06T13:55:30.955Z,12.75